Terminal Aerodrome Forecast
Issued by NWS

Home | Current Version | Previous Version | Text Only | Print | Product List | Glossary On
Versions: 1 2 3 4 5 6 7 8 9 10 11 12 13 14 15
000
FTUS45 KREV 051120
TAFMMH
TAF
KMMH 051120Z 0512/0612 VRB04KT P6SM SKC
     FM051700 13008KT P6SM SKC
     FM052300 26009G18KT P6SM SKC
     FM060300 31005KT P6SM SKC=

USA.gov is the U.S. government's official web portal to all federal, state and local government web resources and services.